sensor_id;sensor_type;location;lat;lon;timestamp;temperature;humidity
78212;SHT31;67490;52.086;5.122;2023-03-14T00:02:30;12.81;73.77
78212;SHT31;67490;52.086;5.122;2023-03-14T00:05:14;12.84;73.54
78212;SHT31;67490;52.086;5.122;2023-03-14T00:07:59;12.53;74.02
78212;SHT31;67490;52.086;5.122;2023-03-14T00:10:43;12.54;74.39
78212;SHT31;67490;52.086;5.122;2023-03-14T00:13:29;12.57;74.14
78212;SHT31;67490;52.086;5.122;2023-03-14T00:16:16;12.61;73.97
78212;SHT31;67490;52.086;5.122;2023-03-14T00:19:01;12.77;73.28
78212;SHT31;67490;52.086;5.122;2023-03-14T00:21:46;12.81;73.08
78212;SHT31;67490;52.086;5.122;2023-03-14T00:24:30;12.77;73.18
78212;SHT31;67490;52.086;5.122;2023-03-14T00:27:15;12.68;72.95
78212;SHT31;67490;52.086;5.122;2023-03-14T00:30:01;12.60;72.76
78212;SHT31;67490;52.086;5.122;2023-03-14T00:32:45;12.37;73.26
78212;SHT31;67490;52.086;5.122;2023-03-14T00:35:29;12.25;73.43
78212;SHT31;67490;52.086;5.122;2023-03-14T00:38:13;12.20;73.46
78212;SHT31;67490;52.086;5.122;2023-03-14T00:40:58;12.08;73.43
78212;SHT31;67490;52.086;5.122;2023-03-14T00:43:43;11.98;73.75
78212;SHT31;67490;52.086;5.122;2023-03-14T00:46:28;12.25;73.66
78212;SHT31;67490;52.086;5.122;2023-03-14T00:49:13;12.11;73.96
78212;SHT31;67490;52.086;5.122;2023-03-14T00:51:57;12.08;74.37
78212;SHT31;67490;52.086;5.122;2023-03-14T00:54:42;11.82;75.00
78212;SHT31;67490;52.086;5.122;2023-03-14T00:57:26;12.22;73.24
78212;SHT31;67490;52.086;5.122;2023-03-14T01:00:12;12.34;73.64
78212;SHT31;67490;52.086;5.122;2023-03-14T01:02:58;12.22;74.28
78212;SHT31;67490;52.086;5.122;2023-03-14T01:05:42;12.23;75.05
78212;SHT31;67490;52.086;5.122;2023-03-14T01:08:27;12.08;75.96
78212;SHT31;67490;52.086;5.122;2023-03-14T01:11:14;11.89;77.04
78212;SHT31;67490;52.086;5.122;2023-03-14T01:14:00;11.91;77.37
78212;SHT31;67490;52.086;5.122;2023-03-14T01:16:44;11.50;79.10
78212;SHT31;67490;52.086;5.122;2023-03-14T01:19:30;11.78;78.19
78212;SHT31;67490;52.086;5.122;2023-03-14T01:22:15;11.54;78.76
78212;SHT31;67490;52.086;5.122;2023-03-14T01:25:00;11.52;79.02
78212;SHT31;67490;52.086;5.122;2023-03-14T01:27:45;11.40;79.63
78212;SHT31;67490;52.086;5.122;2023-03-14T01:30:29;11.68;78.24
78212;SHT31;67490;52.086;5.122;2023-03-14T01:33:14;11.75;77.93
78212;SHT31;67490;52.086;5.122;2023-03-14T01:36:00;11.78;77.56
78212;SHT31;67490;52.086;5.122;2023-03-14T01:38:46;11.54;77.49
78212;SHT31;67490;52.086;5.122;2023-03-14T01:41:30;11.68;77.50
78212;SHT31;67490;52.086;5.122;2023-03-14T01:44:15;11.38;78.24
78212;SHT31;67490;52.086;5.122;2023-03-14T01:46:59;11.54;78.11
78212;SHT31;67490;52.086;5.122;2023-03-14T01:49:46;11.61;77.40
78212;SHT31;67490;52.086;5.122;2023-03-14T01:52:37;11.82;76.44
78212;SHT31;67490;52.086;5.122;2023-03-14T01:55:26;11.91;76.45
78212;SHT31;67490;52.086;5.122;2023-03-14T01:58:10;12.03;75.24
78212;SHT31;67490;52.086;5.122;2023-03-14T02:00:57;11.91;75.54
78212;SHT31;67490;52.086;5.122;2023-03-14T02:03:48;11.79;75.82
78212;SHT31;67490;52.086;5.122;2023-03-14T02:06:42;11.85;75.85
78212;SHT31;67490;52.086;5.122;2023-03-14T02:09:30;11.74;76.45
78212;SHT31;67490;52.086;5.122;2023-03-14T02:12:16;11.85;75.76
78212;SHT31;67490;52.086;5.122;2023-03-14T02:15:02;11.99;75.62
78212;SHT31;67490;52.086;5.122;2023-03-14T02:17:47;12.06;75.06
78212;SHT31;67490;52.086;5.122;2023-03-14T02:20:38;11.78;76.09
78212;SHT31;67490;52.086;5.122;2023-03-14T02:23:33;11.93;75.88
78212;SHT31;67490;52.086;5.122;2023-03-14T02:26:28;11.81;76.07
78212;SHT31;67490;52.086;5.122;2023-03-14T02:29:17;11.85;76.95
78212;SHT31;67490;52.086;5.122;2023-03-14T02:32:02;11.72;76.27
78212;SHT31;67490;52.086;5.122;2023-03-14T02:34:51;11.57;76.90
78212;SHT31;67490;52.086;5.122;2023-03-14T02:37:41;11.57;76.93
78212;SHT31;67490;52.086;5.122;2023-03-14T02:40:26;11.71;76.40
78212;SHT31;67490;52.086;5.122;2023-03-14T02:43:10;11.70;76.38
78212;SHT31;67490;52.086;5.122;2023-03-14T02:45:56;11.85;76.00
78212;SHT31;67490;52.086;5.122;2023-03-14T02:48:44;11.78;76.46
78212;SHT31;67490;52.086;5.122;2023-03-14T02:51:31;11.58;76.53
78212;SHT31;67490;52.086;5.122;2023-03-14T02:54:19;11.71;76.26
78212;SHT31;67490;52.086;5.122;2023-03-14T02:57:04;11.79;76.08
78212;SHT31;67490;52.086;5.122;2023-03-14T02:59:48;11.85;76.31
78212;SHT31;67490;52.086;5.122;2023-03-14T03:02:34;11.79;75.95
78212;SHT31;67490;52.086;5.122;2023-03-14T03:05:19;11.81;76.24
78212;SHT31;67490;52.086;5.122;2023-03-14T03:08:04;11.96;76.24
78212;SHT31;67490;52.086;5.122;2023-03-14T03:10:49;11.98;75.66
78212;SHT31;67490;52.086;5.122;2023-03-14T03:13:34;11.89;75.81
78212;SHT31;67490;52.086;5.122;2023-03-14T03:16:18;11.85;76.06
78212;SHT31;67490;52.086;5.122;2023-03-14T03:19:04;11.96;75.86
78212;SHT31;67490;52.086;5.122;2023-03-14T03:21:49;12.12;74.97
78212;SHT31;67490;52.086;5.122;2023-03-14T03:24:33;12.01;75.28
78212;SHT31;67490;52.086;5.122;2023-03-14T03:27:18;11.99;75.31
78212;SHT31;67490;52.086;5.122;2023-03-14T03:30:03;12.06;75.00
78212;SHT31;67490;52.086;5.122;2023-03-14T03:32:48;11.99;74.80
78212;SHT31;67490;52.086;5.122;2023-03-14T03:35:35;12.03;74.56
78212;SHT31;67490;52.086;5.122;2023-03-14T03:38:25;12.05;74.73
78212;SHT31;67490;52.086;5.122;2023-03-14T03:41:10;12.08;74.75
78212;SHT31;67490;52.086;5.122;2023-03-14T03:43:55;12.18;73.72
78212;SHT31;67490;52.086;5.122;2023-03-14T03:46:39;12.22;74.40
78212;SHT31;67490;52.086;5.122;2023-03-14T03:49:27;12.16;74.05
78212;SHT31;67490;52.086;5.122;2023-03-14T03:52:13;12.26;73.60
78212;SHT31;67490;52.086;5.122;2023-03-14T03:54:58;12.28;73.26
78212;SHT31;67490;52.086;5.122;2023-03-14T03:57:42;12.28;73.65
78212;SHT31;67490;52.086;5.122;2023-03-14T04:00:26;12.33;73.50
78212;SHT31;67490;52.086;5.122;2023-03-14T04:03:10;12.02;74.60
78212;SHT31;67490;52.086;5.122;2023-03-14T04:05:59;12.22;73.74
78212;SHT31;67490;52.086;5.122;2023-03-14T04:08:44;12.28;73.37
78212;SHT31;67490;52.086;5.122;2023-03-14T04:11:29;12.39;73.01
78212;SHT31;67490;52.086;5.122;2023-03-14T04:14:13;12.15;73.82
78212;SHT31;67490;52.086;5.122;2023-03-14T04:16:58;12.36;73.18
78212;SHT31;67490;52.086;5.122;2023-03-14T04:19:42;12.30;73.24
78212;SHT31;67490;52.086;5.122;2023-03-14T04:22:27;12.33;73.25
78212;SHT31;67490;52.086;5.122;2023-03-14T04:25:12;12.15;73.81
78212;SHT31;67490;52.086;5.122;2023-03-14T04:27:57;12.15;73.62
78212;SHT31;67490;52.086;5.122;2023-03-14T04:30:41;12.08;74.10
78212;SHT31;67490;52.086;5.122;2023-03-14T04:33:26;12.22;73.49
78212;SHT31;67490;52.086;5.122;2023-03-14T04:36:10;12.23;73.57
78212;SHT31;67490;52.086;5.122;2023-03-14T04:38:55;12.18;74.18
78212;SHT31;67490;52.086;5.122;2023-03-14T04:41:40;12.16;73.67
78212;SHT31;67490;52.086;5.122;2023-03-14T04:44:25;12.11;74.33
78212;SHT31;67490;52.086;5.122;2023-03-14T04:47:10;12.05;74.58
78212;SHT31;67490;52.086;5.122;2023-03-14T04:49:54;11.92;74.93
78212;SHT31;67490;52.086;5.122;2023-03-14T04:52:38;11.96;76.43
78212;SHT31;67490;52.086;5.122;2023-03-14T04:55:23;11.72;77.76
78212;SHT31;67490;52.086;5.122;2023-03-14T04:58:09;11.74;78.07
78212;SHT31;67490;52.086;5.122;2023-03-14T05:00:54;11.99;77.57
78212;SHT31;67490;52.086;5.122;2023-03-14T05:03:38;11.95;77.58
78212;SHT31;67490;52.086;5.122;2023-03-14T05:06:23;12.09;77.49
78212;SHT31;67490;52.086;5.122;2023-03-14T05:09:08;11.99;77.80
78212;SHT31;67490;52.086;5.122;2023-03-14T05:11:52;12.06;77.60
78212;SHT31;67490;52.086;5.122;2023-03-14T05:14:38;11.98;77.67
78212;SHT31;67490;52.086;5.122;2023-03-14T05:17:23;11.89;78.12
78212;SHT31;67490;52.086;5.122;2023-03-14T05:20:09;12.05;77.72
78212;SHT31;67490;52.086;5.122;2023-03-14T05:22:56;11.82;78.36
78212;SHT31;67490;52.086;5.122;2023-03-14T05:25:43;11.95;78.31
78212;SHT31;67490;52.086;5.122;2023-03-14T05:28:28;11.79;78.66
78212;SHT31;67490;52.086;5.122;2023-03-14T05:31:14;11.72;79.10
78212;SHT31;67490;52.086;5.122;2023-03-14T05:33:58;11.74;78.65
78212;SHT31;67490;52.086;5.122;2023-03-14T05:36:42;11.64;80.23
78212;SHT31;67490;52.086;5.122;2023-03-14T05:39:27;11.81;79.01
78212;SHT31;67490;52.086;5.122;2023-03-14T05:42:11;11.82;78.99
78212;SHT31;67490;52.086;5.122;2023-03-14T05:44:55;11.55;79.81
78212;SHT31;67490;52.086;5.122;2023-03-14T05:47:40;11.74;79.35
78212;SHT31;67490;52.086;5.122;2023-03-14T05:50:25;11.81;79.21
78212;SHT31;67490;52.086;5.122;2023-03-14T05:53:09;11.89;78.92
78212;SHT31;67490;52.086;5.122;2023-03-14T05:55:54;11.89;78.30
78212;SHT31;67490;52.086;5.122;2023-03-14T05:58:39;11.75;79.42
78212;SHT31;67490;52.086;5.122;2023-03-14T06:01:23;11.65;79.58
78212;SHT31;67490;52.086;5.122;2023-03-14T06:04:09;11.71;79.54
78212;SHT31;67490;52.086;5.122;2023-03-14T06:06:53;11.70;79.98
78212;SHT31;67490;52.086;5.122;2023-03-14T06:09:38;11.37;81.15
78212;SHT31;67490;52.086;5.122;2023-03-14T06:12:23;11.41;81.53
78212;SHT31;67490;52.086;5.122;2023-03-14T06:15:08;11.27;82.42
78212;SHT31;67490;52.086;5.122;2023-03-14T06:17:53;11.24;82.25
78212;SHT31;67490;52.086;5.122;2023-03-14T06:20:39;11.22;81.92
78212;SHT31;67490;52.086;5.122;2023-03-14T06:23:24;11.17;80.19
78212;SHT31;67490;52.086;5.122;2023-03-14T06:26:09;10.95;79.46
78212;SHT31;67490;52.086;5.122;2023-03-14T06:28:53;10.89;79.44
78212;SHT31;67490;52.086;5.122;2023-03-14T06:31:38;10.73;79.13
78212;SHT31;67490;52.086;5.122;2023-03-14T06:34:23;10.86;79.23
78212;SHT31;67490;52.086;5.122;2023-03-14T06:37:09;10.97;78.45
78212;SHT31;67490;52.086;5.122;2023-03-14T06:39:53;10.86;77.99
78212;SHT31;67490;52.086;5.122;2023-03-14T06:42:38;10.96;78.28
78212;SHT31;67490;52.086;5.122;2023-03-14T06:45:22;11.03;78.11
78212;SHT31;67490;52.086;5.122;2023-03-14T06:48:06;10.95;78.58
78212;SHT31;67490;52.086;5.122;2023-03-14T06:50:51;10.65;79.09
78212;SHT31;67490;52.086;5.122;2023-03-14T06:53:37;10.77;79.01
78212;SHT31;67490;52.086;5.122;2023-03-14T06:56:21;10.76;78.09
78212;SHT31;67490;52.086;5.122;2023-03-14T06:59:06;10.82;78.74
78212;SHT31;67490;52.086;5.122;2023-03-14T07:01:50;11.04;78.06
78212;SHT31;67490;52.086;5.122;2023-03-14T07:04:34;11.04;78.17
78212;SHT31;67490;52.086;5.122;2023-03-14T07:07:19;10.95;78.24
78212;SHT31;67490;52.086;5.122;2023-03-14T07:10:06;10.73;78.18
78212;SHT31;67490;52.086;5.122;2023-03-14T07:12:52;10.61;78.23
78212;SHT31;67490;52.086;5.122;2023-03-14T07:15:38;10.68;76.72
78212;SHT31;67490;52.086;5.122;2023-03-14T07:18:22;10.42;78.29
78212;SHT31;67490;52.086;5.122;2023-03-14T07:21:06;10.51;77.25
78212;SHT31;67490;52.086;5.122;2023-03-14T07:23:51;10.49;77.00
78212;SHT31;67490;52.086;5.122;2023-03-14T07:26:37;10.68;76.84
78212;SHT31;67490;52.086;5.122;2023-03-14T07:29:21;10.59;76.42
78212;SHT31;67490;52.086;5.122;2023-03-14T07:32:06;10.63;76.45
78212;SHT31;67490;52.086;5.122;2023-03-14T07:34:51;10.63;74.99
78212;SHT31;67490;52.086;5.122;2023-03-14T07:37:35;10.72;75.14
78212;SHT31;67490;52.086;5.122;2023-03-14T07:40:20;10.72;76.28
78212;SHT31;67490;52.086;5.122;2023-03-14T07:43:06;10.80;76.27
78212;SHT31;67490;52.086;5.122;2023-03-14T07:45:51;10.54;76.85
78212;SHT31;67490;52.086;5.122;2023-03-14T07:48:35;10.55;76.53
78212;SHT31;67490;52.086;5.122;2023-03-14T07:51:19;10.31;76.10
78212;SHT31;67490;52.086;5.122;2023-03-14T07:54:03;10.28;75.38
78212;SHT31;67490;52.086;5.122;2023-03-14T07:56:48;10.31;75.51
78212;SHT31;67490;52.086;5.122;2023-03-14T07:59:34;10.04;77.01
78212;SHT31;67490;52.086;5.122;2023-03-14T08:02:18;10.35;76.30
78212;SHT31;67490;52.086;5.122;2023-03-14T08:05:06;10.44;75.45
78212;SHT31;67490;52.086;5.122;2023-03-14T08:07:51;10.28;76.12
78212;SHT31;67490;52.086;5.122;2023-03-14T08:10:35;10.24;76.25
78212;SHT31;67490;52.086;5.122;2023-03-14T08:13:19;9.91;75.61
78212;SHT31;67490;52.086;5.122;2023-03-14T08:16:07;9.49;77.41
78212;SHT31;67490;52.086;5.122;2023-03-14T08:18:52;9.01;77.35
78212;SHT31;67490;52.086;5.122;2023-03-14T08:21:36;8.70;77.62
78212;SHT31;67490;52.086;5.122;2023-03-14T08:24:21;8.33;77.92
78212;SHT31;67490;52.086;5.122;2023-03-14T08:27:05;8.19;77.41
78212;SHT31;67490;52.086;5.122;2023-03-14T08:29:50;7.94;79.04
78212;SHT31;67490;52.086;5.122;2023-03-14T08:32:36;8.05;79.35
78212;SHT31;67490;52.086;5.122;2023-03-14T08:35:20;8.10;80.32
78212;SHT31;67490;52.086;5.122;2023-03-14T08:38:05;8.22;79.30
78212;SHT31;67490;52.086;5.122;2023-03-14T08:40:55;8.26;79.23
78212;SHT31;67490;52.086;5.122;2023-03-14T08:43:39;8.45;77.52
78212;SHT31;67490;52.086;5.122;2023-03-14T08:46:23;8.61;74.74
78212;SHT31;67490;52.086;5.122;2023-03-14T08:49:09;8.77;74.76
78212;SHT31;67490;52.086;5.122;2023-03-14T08:51:53;8.92;74.06
78212;SHT31;67490;52.086;5.122;2023-03-14T08:54:38;8.92;75.35
78212;SHT31;67490;52.086;5.122;2023-03-14T08:57:23;8.78;74.26
78212;SHT31;67490;52.086;5.122;2023-03-14T09:00:12;8.36;73.64
78212;SHT31;67490;52.086;5.122;2023-03-14T09:02:59;8.35;74.86
78212;SHT31;67490;52.086;5.122;2023-03-14T09:05:45;8.50;74.25
78212;SHT31;67490;52.086;5.122;2023-03-14T09:08:29;8.71;74.36
78212;SHT31;67490;52.086;5.122;2023-03-14T09:11:14;8.81;72.75
78212;SHT31;67490;52.086;5.122;2023-03-14T09:13:58;8.95;72.42
78212;SHT31;67490;52.086;5.122;2023-03-14T09:16:43;8.61;73.73
78212;SHT31;67490;52.086;5.122;2023-03-14T09:19:28;8.97;72.29
78212;SHT31;67490;52.086;5.122;2023-03-14T09:22:13;8.92;72.84
78212;SHT31;67490;52.086;5.122;2023-03-14T09:24:58;8.95;72.64
78212;SHT31;67490;52.086;5.122;2023-03-14T09:27:42;9.11;73.01
78212;SHT31;67490;52.086;5.122;2023-03-14T09:30:26;8.95;72.48
78212;SHT31;67490;52.086;5.122;2023-03-14T09:33:11;8.85;71.81
78212;SHT31;67490;52.086;5.122;2023-03-14T09:35:57;8.71;72.89
78212;SHT31;67490;52.086;5.122;2023-03-14T09:38:43;8.47;74.19
78212;SHT31;67490;52.086;5.122;2023-03-14T09:41:32;8.70;73.62
78212;SHT31;67490;52.086;5.122;2023-03-14T09:44:22;8.60;72.36
78212;SHT31;67490;52.086;5.122;2023-03-14T09:47:13;8.24;73.56
78212;SHT31;67490;52.086;5.122;2023-03-14T09:50:00;8.25;72.27
78212;SHT31;67490;52.086;5.122;2023-03-14T09:52:49;8.26;74.76
78212;SHT31;67490;52.086;5.122;2023-03-14T09:55:36;8.40;73.72
78212;SHT31;67490;52.086;5.122;2023-03-14T09:58:23;8.54;74.19
78212;SHT31;67490;52.086;5.122;2023-03-14T10:01:13;8.46;74.07
78212;SHT31;67490;52.086;5.122;2023-03-14T10:04:04;8.50;74.23
78212;SHT31;67490;52.086;5.122;2023-03-14T10:06:50;8.59;74.31
78212;SHT31;67490;52.086;5.122;2023-03-14T10:09:34;8.37;74.05
78212;SHT31;67490;52.086;5.122;2023-03-14T10:12:31;8.53;75.02
78212;SHT31;67490;52.086;5.122;2023-03-14T10:15:24;8.49;72.76
78212;SHT31;67490;52.086;5.122;2023-03-14T10:18:11;8.46;73.34
78212;SHT31;67490;52.086;5.122;2023-03-14T10:21:05;8.56;73.54
78212;SHT31;67490;52.086;5.122;2023-03-14T10:23:50;8.61;72.52
78212;SHT31;67490;52.086;5.122;2023-03-14T10:26:36;9.03;71.74
78212;SHT31;67490;52.086;5.122;2023-03-14T10:29:23;8.92;72.04
78212;SHT31;67490;52.086;5.122;2023-03-14T10:32:19;9.29;70.65
78212;SHT31;67490;52.086;5.122;2023-03-14T10:35:08;9.65;69.80
78212;SHT31;67490;52.086;5.122;2023-03-14T10:37:56;9.39;68.23
78212;SHT31;67490;52.086;5.122;2023-03-14T10:40:47;9.36;68.30
78212;SHT31;67490;52.086;5.122;2023-03-14T10:43:36;9.62;67.73
78212;SHT31;67490;52.086;5.122;2023-03-14T10:46:28;9.73;67.34
78212;SHT31;67490;52.086;5.122;2023-03-14T10:49:26;9.66;65.89
78212;SHT31;67490;52.086;5.122;2023-03-14T10:52:21;9.40;67.81
78212;SHT31;67490;52.086;5.122;2023-03-14T10:55:11;8.97;67.91
78212;SHT31;67490;52.086;5.122;2023-03-14T10:57:57;8.67;68.85
78212;SHT31;67490;52.086;5.122;2023-03-14T11:00:42;8.64;69.16
78212;SHT31;67490;52.086;5.122;2023-03-14T11:03:31;8.53;69.71
78212;SHT31;67490;52.086;5.122;2023-03-14T11:06:23;9.00;69.10
78212;SHT31;67490;52.086;5.122;2023-03-14T11:09:21;8.92;66.87
78212;SHT31;67490;52.086;5.122;2023-03-14T11:12:29;9.15;66.81
78212;SHT31;67490;52.086;5.122;2023-03-14T11:15:23;9.19;66.31
78212;SHT31;67490;52.086;5.122;2023-03-14T11:18:48;9.28;64.47
78212;SHT31;67490;52.086;5.122;2023-03-14T11:21:41;9.50;63.59
78212;SHT31;67490;52.086;5.122;2023-03-14T11:24:41;9.62;61.85
78212;SHT31;67490;52.086;5.122;2023-03-14T11:27:39;9.72;62.43
78212;SHT31;67490;52.086;5.122;2023-03-14T11:30:33;9.86;60.93
78212;SHT31;67490;52.086;5.122;2023-03-14T11:33:24;9.87;58.50
78212;SHT31;67490;52.086;5.122;2023-03-14T11:36:19;9.49;58.48
78212;SHT31;67490;52.086;5.122;2023-03-14T11:39:13;9.26;58.51
78212;SHT31;67490;52.086;5.122;2023-03-14T11:42:00;9.45;59.58
78212;SHT31;67490;52.086;5.122;2023-03-14T11:44:48;9.72;58.63
78212;SHT31;67490;52.086;5.122;2023-03-14T11:47:38;9.72;56.95
78212;SHT31;67490;52.086;5.122;2023-03-14T11:50:29;9.94;54.83
78212;SHT31;67490;52.086;5.122;2023-03-14T11:53:21;10.13;55.54
78212;SHT31;67490;52.086;5.122;2023-03-14T11:56:14;10.03;52.99
78212;SHT31;67490;52.086;5.122;2023-03-14T11:59:04;10.25;52.68
78212;SHT31;67490;52.086;5.122;2023-03-14T12:01:53;10.24;51.56
78212;SHT31;67490;52.086;5.122;2023-03-14T12:04:53;10.01;50.91
78212;SHT31;67490;52.086;5.122;2023-03-14T12:07:50;9.98;50.28
78212;SHT31;67490;52.086;5.122;2023-03-14T12:10:52;10.10;50.17
78212;SHT31;67490;52.086;5.122;2023-03-14T12:13:40;10.04;49.14
78212;SHT31;67490;52.086;5.122;2023-03-14T12:16:38;10.00;48.84
78212;SHT31;67490;52.086;5.122;2023-03-14T12:19:33;10.05;49.57
78212;SHT31;67490;52.086;5.122;2023-03-14T12:22:26;9.90;50.05
78212;SHT31;67490;52.086;5.122;2023-03-14T12:25:17;10.14;48.62
78212;SHT31;67490;52.086;5.122;2023-03-14T12:28:16;10.13;47.54
78212;SHT31;67490;52.086;5.122;2023-03-14T12:34:31;9.82;47.36
78212;SHT31;67490;52.086;5.122;2023-03-14T12:37:24;10.15;47.22
78212;SHT31;67490;52.086;5.122;2023-03-14T12:40:19;10.15;45.18
78212;SHT31;67490;52.086;5.122;2023-03-14T12:43:25;10.07;44.41
78212;SHT31;67490;52.086;5.122;2023-03-14T12:46:22;10.01;45.15
78212;SHT31;67490;52.086;5.122;2023-03-14T12:49:08;10.00;46.92
78212;SHT31;67490;52.086;5.122;2023-03-14T12:51:58;10.05;44.86
78212;SHT31;67490;52.086;5.122;2023-03-14T12:54:50;10.03;45.87
78212;SHT31;67490;52.086;5.122;2023-03-14T12:57:45;9.80;45.02
78212;SHT31;67490;52.086;5.122;2023-03-14T13:00:35;9.66;44.90
78212;SHT31;67490;52.086;5.122;2023-03-14T13:03:26;9.40;44.77
78212;SHT31;67490;52.086;5.122;2023-03-14T13:06:11;9.46;45.66
78212;SHT31;67490;52.086;5.122;2023-03-14T13:08:56;9.59;44.06
78212;SHT31;67490;52.086;5.122;2023-03-14T13:11:43;9.59;44.12
78212;SHT31;67490;52.086;5.122;2023-03-14T13:14:28;9.45;44.44
78212;SHT31;67490;52.086;5.122;2023-03-14T13:17:22;9.50;45.37
78212;SHT31;67490;52.086;5.122;2023-03-14T13:20:15;9.50;45.60
78212;SHT31;67490;52.086;5.122;2023-03-14T13:23:00;9.62;46.42
78212;SHT31;67490;52.086;5.122;2023-03-14T13:25:45;9.49;46.85
78212;SHT31;67490;52.086;5.122;2023-03-14T13:28:31;9.39;47.04
78212;SHT31;67490;52.086;5.122;2023-03-14T13:31:22;9.38;46.80
78212;SHT31;67490;52.086;5.122;2023-03-14T13:34:11;9.19;46.40
78212;SHT31;67490;52.086;5.122;2023-03-14T13:36:56;9.40;47.10
78212;SHT31;67490;52.086;5.122;2023-03-14T13:39:40;9.49;46.42
78212;SHT31;67490;52.086;5.122;2023-03-14T13:42:28;9.39;45.58
78212;SHT31;67490;52.086;5.122;2023-03-14T13:45:14;9.34;46.59
78212;SHT31;67490;52.086;5.122;2023-03-14T13:47:58;9.08;47.16
78212;SHT31;67490;52.086;5.122;2023-03-14T13:50:53;9.19;47.71
78212;SHT31;67490;52.086;5.122;2023-03-14T13:53:44;9.14;47.74
78212;SHT31;67490;52.086;5.122;2023-03-14T13:56:31;9.45;46.54
78212;SHT31;67490;52.086;5.122;2023-03-14T13:59:22;9.60;46.30
78212;SHT31;67490;52.086;5.122;2023-03-14T14:02:13;9.52;45.25
78212;SHT31;67490;52.086;5.122;2023-03-14T14:04:59;9.83;46.08
78212;SHT31;67490;52.086;5.122;2023-03-14T14:07:45;9.80;46.00
78212;SHT31;67490;52.086;5.122;2023-03-14T14:10:32;9.80;46.01
78212;SHT31;67490;52.086;5.122;2023-03-14T14:13:20;9.65;46.17
78212;SHT31;67490;52.086;5.122;2023-03-14T14:16:06;9.62;46.20
78212;SHT31;67490;52.086;5.122;2023-03-14T14:18:52;9.57;46.86
78212;SHT31;67490;52.086;5.122;2023-03-14T14:21:39;9.62;45.94
78212;SHT31;67490;52.086;5.122;2023-03-14T14:24:30;9.72;43.37
78212;SHT31;67490;52.086;5.122;2023-03-14T14:27:17;9.38;43.73
78212;SHT31;67490;52.086;5.122;2023-03-14T14:30:03;9.46;44.20
78212;SHT31;67490;52.086;5.122;2023-03-14T14:32:49;9.34;44.37
78212;SHT31;67490;52.086;5.122;2023-03-14T14:35:35;9.32;44.28
78212;SHT31;67490;52.086;5.122;2023-03-14T14:38:20;9.31;44.92
78212;SHT31;67490;52.086;5.122;2023-03-14T14:41:11;9.56;46.14
78212;SHT31;67490;52.086;5.122;2023-03-14T14:43:57;9.70;45.43
78212;SHT31;67490;52.086;5.122;2023-03-14T14:46:42;9.67;45.15
78212;SHT31;67490;52.086;5.122;2023-03-14T14:49:30;9.49;46.26
78212;SHT31;67490;52.086;5.122;2023-03-14T14:52:17;9.26;47.15
78212;SHT31;67490;52.086;5.122;2023-03-14T14:55:02;9.36;47.70
78212;SHT31;67490;52.086;5.122;2023-03-14T14:57:52;9.22;48.76
78212;SHT31;67490;52.086;5.122;2023-03-14T15:00:40;9.19;46.29
78212;SHT31;67490;52.086;5.122;2023-03-14T15:03:28;9.52;45.31
78212;SHT31;67490;52.086;5.122;2023-03-14T15:06:15;9.40;43.13
78212;SHT31;67490;52.086;5.122;2023-03-14T15:09:00;9.11;45.91
78212;SHT31;67490;52.086;5.122;2023-03-14T15:11:44;9.15;44.90
78212;SHT31;67490;52.086;5.122;2023-03-14T15:14:30;9.04;45.21
78212;SHT31;67490;52.086;5.122;2023-03-14T15:17:14;9.07;45.04
78212;SHT31;67490;52.086;5.122;2023-03-14T15:19:59;9.10;43.76
78212;SHT31;67490;52.086;5.122;2023-03-14T15:22:44;9.08;44.37
78212;SHT31;67490;52.086;5.122;2023-03-14T15:25:28;9.34;44.53
78212;SHT31;67490;52.086;5.122;2023-03-14T15:28:17;8.94;44.99
78212;SHT31;67490;52.086;5.122;2023-03-14T15:31:08;9.26;45.03
78212;SHT31;67490;52.086;5.122;2023-03-14T15:33:53;9.15;45.53
78212;SHT31;67490;52.086;5.122;2023-03-14T15:36:38;9.15;45.58
78212;SHT31;67490;52.086;5.122;2023-03-14T15:39:22;9.19;46.64
78212;SHT31;67490;52.086;5.122;2023-03-14T15:42:06;9.28;46.48
78212;SHT31;67490;52.086;5.122;2023-03-14T15:44:51;9.32;44.90
78212;SHT31;67490;52.086;5.122;2023-03-14T15:47:37;8.84;46.02
78212;SHT31;67490;52.086;5.122;2023-03-14T15:50:21;8.92;46.09
78212;SHT31;67490;52.086;5.122;2023-03-14T15:53:06;8.70;46.30
78212;SHT31;67490;52.086;5.122;2023-03-14T15:55:50;9.00;47.81
78212;SHT31;67490;52.086;5.122;2023-03-14T15:58:35;9.21;46.98
78212;SHT31;67490;52.086;5.122;2023-03-14T16:01:20;8.83;48.23
78212;SHT31;67490;52.086;5.122;2023-03-14T16:04:05;8.98;47.96
78212;SHT31;67490;52.086;5.122;2023-03-14T16:06:50;9.12;47.72
78212;SHT31;67490;52.086;5.122;2023-03-14T16:09:35;8.92;49.70
78212;SHT31;67490;52.086;5.122;2023-03-14T16:12:19;8.89;50.59
78212;SHT31;67490;52.086;5.122;2023-03-14T16:15:05;8.73;51.30
78212;SHT31;67490;52.086;5.122;2023-03-14T16:17:52;9.04;51.12
78212;SHT31;67490;52.086;5.122;2023-03-14T16:20:38;9.15;50.51
78212;SHT31;67490;52.086;5.122;2023-03-14T16:23:23;9.29;50.68
78212;SHT31;67490;52.086;5.122;2023-03-14T16:26:09;9.10;51.18
78212;SHT31;67490;52.086;5.122;2023-03-14T16:28:54;9.08;49.47
78212;SHT31;67490;52.086;5.122;2023-03-14T16:31:39;9.24;49.38
78212;SHT31;67490;52.086;5.122;2023-03-14T16:34:26;8.97;48.14
78212;SHT31;67490;52.086;5.122;2023-03-14T16:37:11;9.26;47.89
78212;SHT31;67490;52.086;5.122;2023-03-14T16:39:56;9.29;46.61
78212;SHT31;67490;52.086;5.122;2023-03-14T16:42:41;9.07;46.08
78212;SHT31;67490;52.086;5.122;2023-03-14T16:45:25;9.05;46.40
78212;SHT31;67490;52.086;5.122;2023-03-14T16:48:10;9.26;46.57
78212;SHT31;67490;52.086;5.122;2023-03-14T16:50:55;9.26;46.54
78212;SHT31;67490;52.086;5.122;2023-03-14T16:53:41;9.14;47.22
78212;SHT31;67490;52.086;5.122;2023-03-14T16:56:25;9.05;48.05
78212;SHT31;67490;52.086;5.122;2023-03-14T16:59:10;9.04;47.04
78212;SHT31;67490;52.086;5.122;2023-03-14T17:01:54;9.00;49.00
78212;SHT31;67490;52.086;5.122;2023-03-14T17:04:40;8.98;48.67
78212;SHT31;67490;52.086;5.122;2023-03-14T17:07:24;9.16;48.88
78212;SHT31;67490;52.086;5.122;2023-03-14T17:10:10;8.60;50.52
78212;SHT31;67490;52.086;5.122;2023-03-14T17:12:55;8.87;50.40
78212;SHT31;67490;52.086;5.122;2023-03-14T17:15:44;9.01;50.99
78212;SHT31;67490;52.086;5.122;2023-03-14T17:18:30;8.98;50.21
78212;SHT31;67490;52.086;5.122;2023-03-14T17:21:14;8.78;50.92
78212;SHT31;67490;52.086;5.122;2023-03-14T17:23:59;8.68;50.73
78212;SHT31;67490;52.086;5.122;2023-03-14T17:26:45;8.54;50.52
78212;SHT31;67490;52.086;5.122;2023-03-14T17:29:29;8.49;51.16
78212;SHT31;67490;52.086;5.122;2023-03-14T17:32:14;8.42;50.31
78212;SHT31;67490;52.086;5.122;2023-03-14T17:34:58;8.33;51.43
78212;SHT31;67490;52.086;5.122;2023-03-14T17:37:43;8.54;51.32
78212;SHT31;67490;52.086;5.122;2023-03-14T17:40:27;8.60;51.67
78212;SHT31;67490;52.086;5.122;2023-03-14T17:43:13;8.50;50.67
78212;SHT31;67490;52.086;5.122;2023-03-14T17:45:59;8.85;50.79